createdAt,value
2023-04-14T00:07:37.943Z,2.85
2023-04-14T00:12:39.668Z,3.22
2023-04-14T00:17:41.363Z,3.10
2023-04-14T00:22:42.970Z,3.53
2023-04-14T00:27:44.606Z,3.72
2023-04-14T00:32:46.462Z,3.42
2023-04-14T00:37:48.207Z,3.65
2023-04-14T00:42:50.631Z,2.53
2023-04-14T00:47:52.582Z,2.75
2023-04-14T00:52:54.446Z,2.15
2023-04-14T00:57:56.439Z,2.42
2023-04-14T01:02:58.204Z,2.08
2023-04-14T01:08:01.080Z,2.85
2023-04-14T01:13:13.866Z,2.60
2023-04-14T01:18:28.157Z,2.45
2023-04-14T01:23:35.322Z,2.80
2023-04-14T01:29:09.904Z,2.30
2023-04-14T01:34:22.471Z,2.72
2023-04-14T01:44:28.505Z,2.75
2023-04-14T01:49:32.959Z,3.17
2023-04-14T01:54:35.047Z,2.78
2023-04-14T01:59:37.379Z,2.90
2023-04-14T02:04:40.080Z,3.20
2023-04-14T02:09:43.029Z,2.47
2023-04-14T02:14:45.949Z,2.92
2023-04-14T02:19:49.436Z,3.65
2023-04-14T02:24:53.096Z,3.80
2023-04-14T02:29:54.935Z,3.20
2023-04-14T02:35:08.395Z,2.92
2023-04-14T02:40:20.651Z,3.60
2023-04-14T02:45:26.678Z,3.17
2023-04-14T02:50:30.362Z,3.25
2023-04-14T02:55:39.860Z,3.75
2023-04-14T03:00:42.593Z,3.92
2023-04-14T03:05:46.124Z,3.80
2023-04-14T03:10:48.976Z,4.00
2023-04-14T03:15:54.411Z,4.18
2023-04-14T03:20:57.302Z,4.28
2023-04-14T03:26:00.435Z,4.20
2023-04-14T03:31:05.313Z,4.65
2023-04-14T03:36:18.246Z,4.20
2023-04-14T03:41:21.434Z,4.82
2023-04-14T03:46:28.399Z,4.20
2023-04-14T03:51:32.149Z,4.55
2023-04-14T03:56:38.070Z,4.45
2023-04-14T04:01:41.193Z,5.65
2023-04-14T04:06:43.315Z,4.45
2023-04-14T04:11:46.983Z,4.60
2023-04-14T04:16:50.213Z,3.88
2023-04-14T04:21:53.972Z,4.60
2023-04-14T04:26:56.281Z,4.13
2023-04-14T04:31:58.991Z,5.72
2023-04-14T04:37:03.585Z,6.40
2023-04-14T04:42:06.818Z,4.80
2023-04-14T04:47:09.316Z,5.57
2023-04-14T04:52:12.572Z,5.65
2023-04-14T04:57:15.080Z,5.00
2023-04-14T05:02:16.787Z,6.05
2023-04-14T05:07:19.653Z,7.13
2023-04-14T05:12:21.344Z,6.00
2023-04-14T05:17:23.133Z,5.55
2023-04-14T05:22:24.748Z,6.43
2023-04-14T05:27:26.354Z,7.10
2023-04-14T05:32:29.100Z,5.70
2023-04-14T05:37:30.998Z,6.18
2023-04-14T05:42:32.610Z,5.95
2023-04-14T05:47:34.284Z,5.15
2023-04-14T05:52:36.068Z,12.45
2023-04-14T05:57:37.801Z,6.95
2023-04-14T06:02:40.563Z,6.15
2023-04-14T06:07:42.383Z,6.35
2023-04-14T06:12:44.068Z,7.88
2023-04-14T06:17:47.503Z,6.65
2023-04-14T06:22:49.183Z,6.38
2023-04-14T06:27:50.850Z,6.35
2023-04-14T06:32:54.384Z,6.57
2023-04-14T06:37:56.545Z,6.35
2023-04-14T06:42:58.146Z,7.10
2023-04-14T06:47:59.790Z,6.90
2023-04-14T06:53:01.520Z,6.68
2023-04-14T06:58:03.811Z,6.28
2023-04-14T07:03:06.016Z,6.50
2023-04-14T07:08:07.731Z,6.63
2023-04-14T07:13:09.328Z,7.15
2023-04-14T07:18:11.054Z,6.80
2023-04-14T07:23:12.793Z,6.28
2023-04-14T07:28:14.390Z,9.85
2023-04-14T07:33:19.953Z,6.35
2023-04-14T07:38:21.657Z,5.05
2023-04-14T07:43:24.163Z,6.60
2023-04-14T07:48:25.967Z,6.28
2023-04-14T07:53:27.668Z,5.80
2023-04-14T07:58:29.897Z,6.30
2023-04-14T08:03:31.950Z,5.53
2023-04-14T08:08:34.488Z,4.82
2023-04-14T08:13:36.137Z,6.07
2023-04-14T08:18:40.446Z,5.95
2023-04-14T08:23:42.401Z,6.68
2023-04-14T08:28:44.138Z,7.60
2023-04-14T08:33:45.913Z,7.40
2023-04-14T08:38:47.887Z,7.43
2023-04-14T08:43:49.552Z,6.78
2023-04-14T08:48:57.342Z,6.82
2023-04-14T08:54:00.402Z,6.63
2023-04-14T08:59:02.352Z,6.22
2023-04-14T09:04:05.029Z,4.82
2023-04-14T09:09:07.752Z,5.28
2023-04-14T09:14:10.098Z,4.50
2023-04-14T09:19:11.837Z,3.17
2023-04-14T09:24:15.451Z,3.88
2023-04-14T09:29:17.119Z,4.20
2023-04-14T09:34:20.377Z,3.05
2023-04-14T09:39:22.637Z,3.22
2023-04-14T09:44:24.348Z,4.03
2023-04-14T09:49:26.495Z,3.80
2023-04-14T09:54:28.292Z,3.65
2023-04-14T09:59:34.614Z,4.35
2023-04-14T10:04:38.164Z,4.53
2023-04-14T10:09:40.850Z,2.78
2023-04-14T10:14:43.634Z,3.35
2023-04-14T10:19:45.765Z,4.00
2023-04-14T10:24:48.828Z,3.00
2023-04-14T10:29:50.752Z,2.20
2023-04-14T10:35:05.850Z,2.90
2023-04-14T10:40:08.140Z,2.45
2023-04-14T10:45:12.711Z,2.85
2023-04-14T10:50:16.537Z,2.67
2023-04-14T10:55:21.752Z,2.10
2023-04-14T11:00:24.416Z,2.17
2023-04-14T11:05:26.149Z,1.73
2023-04-14T11:10:30.759Z,2.42
2023-04-14T11:15:58.503Z,2.38
2023-04-14T11:21:08.785Z,2.15
2023-04-14T11:26:12.163Z,2.60
2023-04-14T11:31:15.974Z,2.55
2023-04-14T11:36:17.725Z,2.13
2023-04-14T11:41:20.424Z,2.70
2023-04-14T11:46:22.405Z,2.25
2023-04-14T11:51:32.452Z,2.53
2023-04-14T11:56:34.247Z,2.63
2023-04-14T12:01:35.920Z,2.47
2023-04-14T12:06:39.146Z,3.03
2023-04-14T12:11:40.908Z,3.22
2023-04-14T12:16:42.874Z,3.55
2023-04-14T12:21:52.936Z,3.15
2023-04-14T12:26:55.898Z,3.28
2023-04-14T12:31:57.630Z,3.38
2023-04-14T12:36:59.297Z,3.33
2023-04-14T12:42:01.092Z,4.18
2023-04-14T12:47:03.511Z,4.15
2023-04-14T12:52:07.931Z,4.18
2023-04-14T12:57:09.565Z,3.78
2023-04-14T13:02:11.287Z,3.75
2023-04-14T13:07:12.981Z,3.58
2023-04-14T13:12:14.637Z,3.33
2023-04-14T13:17:16.412Z,3.15
2023-04-14T13:22:18.298Z,3.22
2023-04-14T13:27:19.963Z,3.92
2023-04-14T13:32:22.147Z,4.15
2023-04-14T13:37:23.911Z,3.83
2023-04-14T13:42:25.621Z,4.15
2023-04-14T13:47:28.350Z,3.40
2023-04-14T13:52:30.010Z,3.00
2023-04-14T13:57:31.990Z,3.40
2023-04-14T14:02:34.067Z,3.33
2023-04-14T14:07:36.780Z,4.35
2023-04-14T14:12:38.463Z,3.35
2023-04-14T14:17:40.896Z,3.25
2023-04-14T14:22:42.725Z,3.15
2023-04-14T14:27:44.913Z,3.20
2023-04-14T14:32:46.576Z,2.97
2023-04-14T14:37:48.429Z,3.08
2023-04-14T14:42:50.422Z,3.50
2023-04-14T14:47:52.194Z,3.22
2023-04-14T14:52:56.116Z,2.95
2023-04-14T14:57:58.070Z,3.88
2023-04-14T15:02:59.944Z,3.33
2023-04-14T15:08:01.788Z,4.65
2023-04-14T15:13:03.440Z,3.15
2023-04-14T15:18:05.313Z,3.67
2023-04-14T15:23:07.384Z,4.20
2023-04-14T15:28:09.095Z,3.50
2023-04-14T15:33:10.943Z,4.28
2023-04-14T15:38:12.598Z,4.03
2023-04-14T15:43:16.154Z,4.20
2023-04-14T15:48:17.732Z,3.97
2023-04-14T15:53:19.350Z,4.30
2023-04-14T15:58:27.381Z,3.83
2023-04-14T16:03:29.200Z,4.43
2023-04-14T16:08:33.970Z,4.82
2023-04-14T16:13:35.728Z,4.38
2023-04-14T16:18:37.371Z,4.95
2023-04-14T16:23:38.975Z,4.72
2023-04-14T16:28:40.699Z,5.85
2023-04-14T16:33:42.371Z,4.68
2023-04-14T16:38:44.060Z,5.30
2023-04-14T16:43:47.722Z,4.32
2023-04-14T16:48:49.516Z,4.25
2023-04-14T16:53:53.745Z,4.88
2023-04-14T16:58:56.494Z,4.85
2023-04-14T17:03:58.280Z,5.15
2023-04-14T17:09:00.748Z,5.63
2023-04-14T17:14:02.835Z,4.95
2023-04-14T17:19:05.162Z,5.15
2023-04-14T17:24:06.884Z,5.88
2023-04-14T17:29:09.216Z,5.28
2023-04-14T17:34:11.857Z,5.13
2023-04-14T17:39:13.699Z,5.60
2023-04-14T17:44:15.541Z,5.25
2023-04-14T17:49:18.256Z,5.95
2023-04-14T17:54:20.266Z,6.15
2023-04-14T17:59:22.238Z,5.63
2023-04-14T18:04:24.048Z,6.47
2023-04-14T18:09:25.799Z,5.82
2023-04-14T18:14:27.469Z,5.63
2023-04-14T18:19:29.143Z,6.20
2023-04-14T18:29:36.655Z,6.75
2023-04-14T18:34:38.389Z,6.38
2023-04-14T18:39:40.081Z,5.30
2023-04-14T18:44:42.045Z,5.40
2023-04-14T18:49:43.669Z,6.90
2023-04-14T18:54:45.430Z,5.90
2023-04-14T18:59:49.974Z,5.32
2023-04-14T19:04:51.749Z,5.85
2023-04-14T19:09:53.522Z,5.30
2023-04-14T19:14:55.532Z,6.30
2023-04-14T19:19:57.617Z,5.72
2023-04-14T19:24:59.473Z,5.60
2023-04-14T19:30:01.159Z,5.97
2023-04-14T19:35:02.940Z,5.13
2023-04-14T19:40:06.374Z,4.80
2023-04-14T19:45:08.579Z,5.85
2023-04-14T19:50:10.429Z,7.38
2023-04-14T19:55:13.286Z,6.45
2023-04-14T20:00:16.102Z,6.85
2023-04-14T20:05:17.857Z,5.70
2023-04-14T20:10:19.625Z,5.32
2023-04-14T20:15:21.398Z,5.45
2023-04-14T20:20:25.234Z,5.45
2023-04-14T20:25:29.121Z,6.03
2023-04-14T20:30:32.245Z,4.82
2023-04-14T20:35:36.016Z,4.53
2023-04-14T20:40:50.043Z,4.78
2023-04-14T20:46:28.383Z,4.88
2023-04-14T20:52:14.182Z,5.40
2023-04-14T20:57:15.865Z,5.35
2023-04-14T21:02:30.297Z,5.53
2023-04-14T21:07:47.688Z,5.13
2023-04-14T21:15:28.037Z,4.10
2023-04-14T21:18:15.564Z,4.57
2023-04-14T21:23:17.508Z,4.50
2023-04-14T21:28:20.366Z,4.95
2023-04-14T21:33:23.469Z,4.53
2023-04-14T21:38:25.160Z,11.40
2023-04-14T21:43:28.226Z,4.53
2023-04-14T21:48:29.858Z,5.28
2023-04-14T21:53:33.660Z,4.68
2023-04-14T21:58:35.379Z,3.92
2023-04-14T22:03:41.677Z,6.35
2023-04-14T22:08:45.567Z,5.35
2023-04-14T22:13:58.269Z,3.92
2023-04-14T22:19:01.525Z,3.60
2023-04-14T22:24:04.634Z,3.20
2023-04-14T22:29:11.540Z,4.65
2023-04-14T22:34:15.433Z,3.45
2023-04-14T22:39:17.050Z,2.40
2023-04-14T22:44:24.494Z,2.78
2023-04-14T22:49:28.227Z,2.92
2023-04-14T22:54:31.232Z,3.03
2023-04-14T22:59:33.897Z,4.07
2023-04-14T23:04:35.653Z,7.10
2023-04-14T23:09:43.025Z,3.05
2023-04-14T23:14:48.640Z,2.25
2023-04-14T23:19:50.269Z,2.92
2023-04-14T23:24:56.020Z,2.33
2023-04-14T23:30:05.396Z,2.53
2023-04-14T23:35:07.689Z,2.35
2023-04-14T23:40:12.828Z,2.05
2023-04-14T23:45:27.216Z,2.15
2023-04-14T23:50:59.533Z,2.08
2023-04-14T23:55:54.676Z,2.63
